Time;durP1;ratioP1;P1;durP2;ratioP2;P2;SDS_P1;SDS_P2;PMS_P1;PMS_P2;Temp;Humidity;BMP_temperature;BMP_pressure;BME280_temperature;BME280_humidity;BME280_pressure;Samples;Min_cycle;Max_cycle;Signal;HPM_P1;HPM_P2
2022/12/05 00:00:16;;;;;;;23.27;16.93;;;6.70;99.90;;;;;;5031402;28;20199;-72
2022/12/05 00:02:42;;;;;;;26.23;18.40;;;6.60;99.90;;;;;;5031888;28;20434;-72
2022/12/05 00:05:09;;;;;;;23.93;17.50;;;6.60;99.90;;;;;;5031390;28;20406;-72
2022/12/05 00:07:35;;;;;;;29.42;19.90;;;6.70;99.90;;;;;;5032389;28;20465;-72
2022/12/05 00:10:01;;;;;;;23.47;17.43;;;6.60;99.90;;;;;;5031555;28;20195;-72
2022/12/05 00:12:26;;;;;;;27.27;18.80;;;6.70;99.90;;;;;;5031127;28;20266;-72
2022/12/05 00:14:52;;;;;;;30.70;18.90;;;6.70;99.90;;;;;;5032766;28;20176;-72
2022/12/05 00:17:18;;;;;;;29.37;18.97;;;6.70;99.90;;;;;;5030287;28;20179;-72
2022/12/05 00:19:44;;;;;;;25.83;17.50;;;6.80;99.90;;;;;;5030660;28;20175;-72
2022/12/05 00:22:09;;;;;;;24.27;17.57;;;6.80;99.90;;;;;;5029877;28;20478;-72
2022/12/05 00:24:35;;;;;;;27.87;18.80;;;6.80;99.90;;;;;;5032688;28;20175;-72
2022/12/05 00:27:01;;;;;;;27.37;18.93;;;6.80;99.90;;;;;;5031417;28;20799;-72
2022/12/05 00:29:26;;;;;;;24.70;16.73;;;6.70;99.90;;;;;;5031151;28;20187;-72
2022/12/05 00:31:52;;;;;;;26.97;19.30;;;6.70;99.90;;;;;;5032177;28;20179;-72
2022/12/05 00:34:18;;;;;;;24.90;18.20;;;6.70;99.90;;;;;;5030772;28;20666;-72
2022/12/05 00:36:43;;;;;;;25.60;18.10;;;6.60;99.90;;;;;;5031411;28;20180;-72
2022/12/05 00:39:13;;;;;;;23.50;17.47;;;6.60;99.90;;;;;;5031732;28;20222;-72
2022/12/05 00:41:38;;;;;;;25.03;19.50;;;6.70;99.90;;;;;;5032488;28;20651;-71
2022/12/05 00:44:04;;;;;;;27.30;18.90;;;6.70;99.90;;;;;;5030235;28;20448;-72
2022/12/05 00:46:31;;;;;;;26.37;17.47;;;6.70;99.90;;;;;;5029927;28;20930;-72
2022/12/05 00:48:59;;;;;;;25.85;18.15;;;6.70;99.90;;;;;;5032053;28;20471;-72
2022/12/05 00:51:36;;;;;;;26.83;18.88;;;6.70;99.90;;;;;;5030774;28;20742;-72
2022/12/05 00:54:06;;;;;;;25.40;17.40;;;6.70;99.90;;;;;;5031430;28;20202;-72
2022/12/05 00:56:32;;;;;;;25.08;18.10;;;6.60;99.90;;;;;;5031074;28;20433;-72
2022/12/05 00:58:59;;;;;;;26.47;18.33;;;6.70;99.90;;;;;;5031504;28;20540;-72
2022/12/05 01:01:35;;;;;;;27.40;19.40;;;6.70;99.90;;;;;;5030043;28;20412;-72
2022/12/05 01:04:04;;;;;;;24.40;19.00;;;6.70;99.90;;;;;;5032263;28;20424;-72
2022/12/05 01:06:30;;;;;;;26.23;19.67;;;6.80;99.90;;;;;;5030541;28;20488;-72
2022/12/05 01:08:56;;;;;;;22.37;17.60;;;6.70;99.90;;;;;;5032132;28;20949;-72
2022/12/05 01:11:24;;;;;;;24.67;17.70;;;6.70;99.90;;;;;;5029789;28;20435;-72
2022/12/05 01:13:50;;;;;;;25.17;17.33;;;6.70;99.90;;;;;;5032317;28;20476;-72
2022/12/05 01:16:16;;;;;;;24.90;17.47;;;6.70;99.90;;;;;;5029670;28;20851;-72
2022/12/05 01:18:42;;;;;;;25.43;18.50;;;6.70;99.90;;;;;;5031231;28;20431;-72
2022/12/05 01:21:08;;;;;;;24.37;17.27;;;6.80;99.90;;;;;;5030674;28;20449;-72
2022/12/05 01:23:34;;;;;;;24.40;18.00;;;6.60;99.90;;;;;;5030572;28;20487;-72
2022/12/05 01:26:03;;;;;;;27.20;17.90;;;6.60;99.90;;;;;;5031103;28;20472;-72
2022/12/05 01:28:29;;;;;;;25.13;18.10;;;6.60;99.90;;;;;;5031304;28;20184;-72
2022/12/05 01:30:54;;;;;;;24.93;18.13;;;6.60;99.90;;;;;;5030911;28;20799;-72
2022/12/05 01:33:20;;;;;;;25.40;16.90;;;6.70;99.90;;;;;;5033205;28;20225;-72
2022/12/05 01:35:46;;;;;;;24.37;17.60;;;6.70;99.90;;;;;;5035378;28;20173;-72
2022/12/05 01:38:12;;;;;;;29.80;18.80;;;6.80;99.90;;;;;;5033374;28;20192;-72
2022/12/05 01:40:38;;;;;;;28.20;18.00;;;6.80;99.90;;;;;;5034369;28;20185;-72
2022/12/05 01:43:14;;;;;;;27.77;18.53;;;6.80;99.90;;;;;;5034355;28;20423;-72
2022/12/05 01:45:42;;;;;;;23.53;17.70;;;6.90;99.90;;;;;;5034544;28;20438;-72
2022/12/05 01:48:20;;;;;;;23.10;17.43;;;6.90;99.90;;;;;;5033612;28;20451;-72
2022/12/05 01:50:46;;;;;;;25.50;17.00;;;6.90;99.90;;;;;;5033664;28;20417;-72
2022/12/05 01:53:12;;;;;;;21.37;16.77;;;6.90;99.90;;;;;;5034625;28;20434;-71
2022/12/05 01:55:38;;;;;;;25.07;18.43;;;6.90;99.90;;;;;;5034145;28;20435;-72
2022/12/05 01:58:05;;;;;;;23.30;17.83;;;6.90;99.90;;;;;;5034061;28;20275;-72
2022/12/05 02:00:31;;;;;;;24.00;16.17;;;6.90;99.90;;;;;;5033446;28;20175;-72
2022/12/05 02:03:06;;;;;;;24.17;16.77;;;6.80;99.90;;;;;;5033554;28;20434;-72
2022/12/05 02:05:34;;;;;;;25.33;17.50;;;6.80;99.90;;;;;;5032712;28;20469;-72
2022/12/05 02:08:04;;;;;;;30.03;18.70;;;6.80;99.90;;;;;;5033798;28;20555;-72
2022/12/05 02:10:44;;;;;;;24.13;17.57;;;6.80;99.90;;;;;;5033305;28;20409;-72
2022/12/05 02:13:31;;;;;;;23.63;16.83;;;6.80;99.90;;;;;;5014410;28;20768;-72
2022/12/05 02:16:13;;;;;;;24.63;16.83;;;6.90;99.90;;;;;;5032757;28;20437;-72
2022/12/05 02:19:08;;;;;;;24.27;18.00;;;6.90;99.90;;;;;;5034128;28;20434;-72
2022/12/05 02:21:51;;;;;;;24.80;17.37;;;7.00;99.90;;;;;;5034281;28;20415;-72
2022/12/05 02:24:43;;;;;;;25.50;17.30;;;6.80;99.90;;;;;;4974825;28;20925;-72
2022/12/05 02:27:38;;;;;;;25.50;17.03;;;6.80;99.90;;;;;;4990328;28;20555;-72
2022/12/05 02:30:07;;;;;;;25.10;17.90;;;6.80;99.90;;;;;;4994107;28;20447;-72
2022/12/05 02:32:33;;;;;;;23.00;16.77;;;6.80;99.90;;;;;;4993767;28;20415;-72
2022/12/05 02:34:58;;;;;;;21.63;17.40;;;6.80;99.90;;;;;;4992395;28;20414;-72
2022/12/05 02:37:50;;;;;;;23.97;17.47;;;6.80;99.90;;;;;;4993817;28;20186;-72
2022/12/05 02:40:40;;;;;;;26.10;16.93;;;6.80;99.90;;;;;;4992773;28;20186;-72
2022/12/05 02:43:16;;;;;;;25.07;16.77;;;6.80;99.90;;;;;;4992740;28;20996;-72
2022/12/05 02:45:46;;;;;;;25.00;17.77;;;6.80;99.90;;;;;;4994931;28;20487;-73
2022/12/05 02:48:14;;;;;;;24.07;16.53;;;6.90;99.90;;;;;;4993254;28;20443;-72
2022/12/05 02:50:42;;;;;;;24.00;16.90;;;6.90;99.90;;;;;;4992800;28;20436;-73
2022/12/05 02:53:11;;;;;;;25.90;17.70;;;6.90;99.90;;;;;;4993989;28;20463;-73
2022/12/05 02:55:40;;;;;;;21.23;17.00;;;6.80;99.90;;;;;;4993236;28;20499;-72
2022/12/05 02:58:15;;;;;;;21.70;16.90;;;6.80;99.90;;;;;;4992962;28;20411;-72
2022/12/05 03:00:43;;;;;;;21.83;17.43;;;6.80;99.90;;;;;;4980008;28;20433;-72
2022/12/05 03:03:21;;;;;;;25.00;16.83;;;6.80;99.90;;;;;;4994377;28;20495;-72
2022/12/05 03:06:01;;;;;;;25.67;18.27;;;6.80;99.90;;;;;;4993443;28;20432;-72
2022/12/05 03:08:38;;;;;;;24.17;17.23;;;6.80;99.90;;;;;;4991213;28;20559;-72
2022/12/05 03:11:05;;;;;;;26.40;15.93;;;6.80;99.90;;;;;;4993420;28;20499;-72
2022/12/05 03:13:38;;;;;;;21.23;16.43;;;6.80;99.90;;;;;;4993906;28;20383;-72
2022/12/05 03:16:11;;;;;;;21.40;16.40;;;6.70;99.90;;;;;;4993300;28;20461;-72
2022/12/05 03:18:50;;;;;;;24.57;17.30;;;6.70;99.90;;;;;;4992681;28;20489;-72
2022/12/05 03:21:28;;;;;;;23.73;17.60;;;6.60;99.90;;;;;;4992634;28;20419;-72
2022/12/05 03:24:06;;;;;;;25.48;18.25;;;6.60;99.90;;;;;;5029730;28;20503;-72
2022/12/05 03:26:40;;;;;;;24.13;18.17;;;6.60;99.90;;;;;;5031430;28;20677;-72
2022/12/05 03:29:44;;;;;;;21.23;16.60;;;6.60;99.90;;;;;;5032279;28;20445;-72
2022/12/05 03:32:10;;;;;;;23.17;16.70;;;6.50;99.90;;;;;;5032296;28;20444;-72
2022/12/05 03:34:53;;;;;;;21.30;16.53;;;6.60;99.90;;;;;;5031497;28;20420;-72
2022/12/05 03:37:21;;;;;;;21.50;16.53;;;6.50;99.90;;;;;;5032580;28;20743;-72
2022/12/05 03:39:53;;;;;;;25.33;17.20;;;6.50;99.90;;;;;;5032197;28;20412;-72
2022/12/05 03:42:27;;;;;;;23.20;17.43;;;6.60;99.90;;;;;;5031626;28;20507;-72
2022/12/05 03:45:05;;;;;;;25.53;16.57;;;6.60;99.90;;;;;;5032909;28;20425;-72
2022/12/05 03:48:01;;;;;;;23.33;16.20;;;6.70;99.90;;;;;;5031398;28;20950;-72
2022/12/05 03:50:28;;;;;;;21.40;15.90;;;6.70;99.90;;;;;;5029373;28;20424;-72
2022/12/05 03:53:03;;;;;;;23.13;16.93;;;6.70;99.90;;;;;;5030443;28;20463;-72
2022/12/05 03:55:32;;;;;;;22.73;16.47;;;6.70;99.90;;;;;;5031672;28;20463;-72
2022/12/05 03:58:04;;;;;;;23.27;16.90;;;6.80;99.90;;;;;;5031839;28;20445;-72
2022/12/05 04:00:35;;;;;;;24.70;16.37;;;6.80;99.90;;;;;;5031029;28;20439;-72
2022/12/05 04:03:10;;;;;;;23.13;17.27;;;6.80;99.90;;;;;;5031242;28;20757;-72
2022/12/05 04:05:48;;;;;;;24.33;17.17;;;6.80;99.90;;;;;;5029850;28;20810;-72
2022/12/05 04:08:38;;;;;;;22.37;16.67;;;6.80;99.90;;;;;;5031768;28;20448;-72
2022/12/05 04:11:17;;;;;;;21.33;16.33;;;6.80;99.90;;;;;;5031403;28;20942;-72
2022/12/05 04:13:45;;;;;;;21.27;16.90;;;6.90;99.90;;;;;;5031068;28;20484;-72
2022/12/05 04:19:18;;;;;;;24.50;17.33;;;6.80;99.90;;;;;;5032145;28;20785;-72
2022/12/05 04:21:49;;;;;;;22.23;16.70;;;6.80;99.90;;;;;;5031186;28;20456;-72
2022/12/05 04:27:39;;;;;;;22.80;15.37;;;6.80;99.90;;;;;;5032119;28;20462;-85
2022/12/05 04:30:13;;;;;;;21.23;16.13;;;6.80;99.90;;;;;;5030334;28;20599;-85
2022/12/05 04:32:42;;;;;;;23.27;16.33;;;6.80;99.90;;;;;;5031211;28;20445;-74
2022/12/05 04:35:18;;;;;;;24.63;17.07;;;6.80;99.90;;;;;;5031467;28;20418;-77
2022/12/05 04:37:47;;;;;;;21.47;16.23;;;6.80;99.90;;;;;;5031304;28;20403;-75
2022/12/05 04:40:27;;;;;;;20.80;16.53;;;6.80;99.90;;;;;;5030734;28;20449;-75
2022/12/05 04:42:55;;;;;;;21.53;16.93;;;6.70;99.90;;;;;;5030552;28;20500;-75
2022/12/05 04:45:24;;;;;;;23.23;16.50;;;6.70;99.90;;;;;;5032036;28;20815;-75
2022/12/05 04:47:56;;;;;;;21.75;16.73;;;6.70;99.90;;;;;;5032264;28;20468;-75
2022/12/05 04:50:23;;;;;;;21.30;15.63;;;6.70;99.90;;;;;;5029539;28;20600;-75
2022/12/05 04:52:53;;;;;;;26.80;16.17;;;6.60;99.90;;;;;;5029244;28;20529;-75
2022/12/05 04:55:24;;;;;;;19.60;15.93;;;6.70;99.90;;;;;;5032036;28;20426;-77
2022/12/05 04:58:13;;;;;;;19.75;15.80;;;6.70;99.90;;;;;;5030030;28;20445;-75
2022/12/05 05:00:55;;;;;;;21.53;17.50;;;6.70;99.90;;;;;;5028827;28;20613;-75
2022/12/05 05:03:25;;;;;;;24.70;16.63;;;6.70;99.90;;;;;;5028880;28;20813;-75
2022/12/05 05:05:54;;;;;;;24.57;15.43;;;6.70;99.90;;;;;;5033085;28;20873;-75
2022/12/05 05:08:26;;;;;;;23.10;16.10;;;6.70;99.90;;;;;;5034260;28;20492;-77
2022/12/05 05:11:13;;;;;;;18.20;14.17;;;6.70;99.90;;;;;;5035280;28;20446;-75
2022/12/05 05:13:39;;;;;;;19.80;15.43;;;6.70;99.90;;;;;;5034099;28;20899;-75
2022/12/05 05:16:05;;;;;;;20.80;15.70;;;6.70;99.90;;;;;;5034894;28;20507;-75
2022/12/05 05:18:31;;;;;;;22.30;15.13;;;6.70;99.90;;;;;;5034227;28;20400;-75
2022/12/05 05:20:57;;;;;;;20.00;15.10;;;6.70;99.90;;;;;;5035364;28;20913;-75
2022/12/05 05:23:23;;;;;;;21.93;15.70;;;6.70;99.90;;;;;;5033292;28;20558;-76
2022/12/05 05:25:53;;;;;;;17.53;13.33;;;6.70;99.90;;;;;;5034961;28;20191;-75
2022/12/05 05:28:19;;;;;;;21.23;15.10;;;6.80;99.90;;;;;;5035634;28;20498;-75
2022/12/05 05:30:45;;;;;;;20.57;14.10;;;6.70;99.90;;;;;;5033668;28;20523;-75
2022/12/05 05:33:10;;;;;;;16.57;13.57;;;6.80;99.90;;;;;;5034789;28;20436;-75
2022/12/05 05:35:36;;;;;;;19.10;14.97;;;6.70;99.90;;;;;;5034915;28;20180;-75
2022/12/05 05:38:02;;;;;;;17.60;15.73;;;6.80;99.90;;;;;;5034528;28;20251;-75
2022/12/05 05:40:28;;;;;;;16.63;14.03;;;6.70;99.90;;;;;;5034725;28;20263;-76
2022/12/05 05:42:54;;;;;;;18.43;14.30;;;6.70;99.90;;;;;;5034344;28;20533;-76
2022/12/05 05:45:19;;;;;;;18.50;14.10;;;6.70;99.90;;;;;;5033383;28;20216;-75
2022/12/05 05:47:47;;;;;;;18.50;16.13;;;6.70;99.90;;;;;;5033622;28;20234;-75
2022/12/05 05:50:14;;;;;;;18.30;13.10;;;6.70;99.90;;;;;;5034880;28;20616;-75
2022/12/05 05:52:40;;;;;;;18.90;15.33;;;6.80;99.90;;;;;;5032929;28;20457;-75
2022/12/05 05:55:07;;;;;;;16.63;12.93;;;6.70;99.90;;;;;;5034151;28;20443;-75
2022/12/05 05:57:34;;;;;;;21.05;14.73;;;6.70;99.90;;;;;;5032945;28;20200;-75
2022/12/05 06:00:00;;;;;;;18.37;13.73;;;6.70;99.90;;;;;;5033949;28;20230;-76
2022/12/05 06:02:30;;;;;;;19.10;14.93;;;6.70;99.90;;;;;;5032388;28;20842;-76
2022/12/05 06:04:55;;;;;;;17.90;14.90;;;6.60;99.90;;;;;;5033482;28;20779;-75
2022/12/05 06:07:21;;;;;;;17.67;14.50;;;6.60;99.90;;;;;;5035122;28;20432;-75
2022/12/05 06:09:47;;;;;;;20.03;15.03;;;6.50;99.90;;;;;;5033109;28;20186;-76
2022/12/05 06:12:12;;;;;;;22.30;17.20;;;6.40;99.90;;;;;;5034117;28;20179;-76
2022/12/05 06:14:38;;;;;;;19.40;14.73;;;6.30;99.90;;;;;;5033848;28;20208;-76
2022/12/05 06:17:04;;;;;;;19.87;14.40;;;6.20;99.90;;;;;;5032344;28;20234;-76
2022/12/05 06:19:29;;;;;;;21.93;16.50;;;6.20;99.90;;;;;;5031529;28;20636;-76
2022/12/05 06:21:55;;;;;;;19.80;14.00;;;6.20;99.90;;;;;;5032843;28;20186;-75
2022/12/05 06:24:21;;;;;;;22.03;16.43;;;6.20;99.90;;;;;;5032706;28;20278;-75
2022/12/05 06:26:46;;;;;;;20.33;14.70;;;6.20;99.90;;;;;;5032960;28;20219;-75
2022/12/05 06:29:12;;;;;;;22.00;15.73;;;6.20;99.90;;;;;;5033188;28;20191;-76
2022/12/05 06:31:38;;;;;;;18.60;14.80;;;6.20;99.90;;;;;;5031890;28;20184;-75
2022/12/05 06:34:03;;;;;;;19.80;13.57;;;6.20;99.90;;;;;;5032981;28;20656;-75
2022/12/05 06:36:29;;;;;;;19.37;14.87;;;6.10;99.90;;;;;;5033318;28;20202;-75
2022/12/05 06:38:59;;;;;;;21.73;16.07;;;6.00;99.90;;;;;;5034330;28;20228;-75
2022/12/05 06:41:26;;;;;;;18.65;14.15;;;6.00;99.90;;;;;;5031812;28;20412;-74
2022/12/05 06:43:53;;;;;;;22.60;16.95;;;6.10;99.90;;;;;;5033097;28;20171;-75
2022/12/05 06:46:20;;;;;;;22.35;14.43;;;6.00;99.90;;;;;;5032349;28;20565;-75
2022/12/05 06:48:46;;;;;;;19.00;15.13;;;6.10;99.90;;;;;;5033387;28;20590;-75
2022/12/05 06:51:14;;;;;;;16.97;15.17;;;6.10;99.90;;;;;;5032942;28;20408;-75
2022/12/05 06:53:40;;;;;;;17.48;13.23;;;6.30;99.90;;;;;;5031562;28;20587;-75
2022/12/05 06:56:13;;;;;;;18.90;13.70;;;6.20;99.90;;;;;;5031736;28;20635;-75
2022/12/05 06:58:40;;;;;;;20.92;15.98;;;6.20;99.90;;;;;;5032423;28;20207;-75
2022/12/05 07:03:57;;;;;;;19.08;14.10;;;6.10;99.90;;;;;;5031214;28;20718;-75
2022/12/05 07:06:23;;;;;;;15.85;12.63;;;6.10;99.90;;;;;;5032298;28;20214;-75
2022/12/05 07:08:49;;;;;;;20.47;15.50;;;6.10;99.90;;;;;;5033133;28;20262;-75
2022/12/05 07:11:15;;;;;;;19.70;15.00;;;6.10;99.90;;;;;;5031003;28;20261;-75
2022/12/05 07:13:41;;;;;;;18.60;15.60;;;6.00;99.90;;;;;;5032413;28;20182;-75
2022/12/05 07:16:07;;;;;;;20.93;17.13;;;6.00;99.90;;;;;;5033647;28;20255;-75
2022/12/05 07:18:33;;;;;;;17.23;15.00;;;6.00;99.90;;;;;;5031183;28;20176;-75
2022/12/05 07:21:02;;;;;;;17.00;14.05;;;6.00;99.90;;;;;;5034025;28;20183;-75
2022/12/05 07:23:28;;;;;;;16.50;14.90;;;6.00;99.90;;;;;;5047111;28;20229;-77
2022/12/05 07:25:54;;;;;;;18.80;13.52;;;5.90;99.90;;;;;;5032594;28;20186;-75
2022/12/05 07:28:20;;;;;;;20.35;15.45;;;5.90;99.90;;;;;;5028433;28;20254;-75
2022/12/05 07:30:46;;;;;;;16.90;13.47;;;5.90;99.90;;;;;;5034120;28;20181;-75
2022/12/05 07:33:11;;;;;;;14.90;13.00;;;5.80;99.90;;;;;;5053298;28;20429;-75
2022/12/05 07:35:37;;;;;;;15.23;11.93;;;5.80;99.90;;;;;;5034106;28;20452;-75
2022/12/05 07:38:03;;;;;;;18.77;14.00;;;5.70;99.90;;;;;;5033006;28;20190;-75
2022/12/05 07:40:32;;;;;;;16.65;13.30;;;5.70;99.90;;;;;;5032616;28;20211;-75
2022/12/05 07:42:57;;;;;;;15.50;12.43;;;5.70;99.90;;;;;;5033077;28;20206;-75
2022/12/05 07:45:23;;;;;;;18.63;14.20;;;5.70;99.90;;;;;;5032969;28;20186;-73
2022/12/05 07:47:49;;;;;;;17.43;14.33;;;5.80;99.90;;;;;;5030130;28;20202;-75
2022/12/05 07:50:14;;;;;;;18.17;12.47;;;5.90;99.90;;;;;;5015089;28;20186;-74
2022/12/05 07:52:40;;;;;;;15.63;11.97;;;5.90;99.90;;;;;;5031697;28;20301;-75
2022/12/05 07:55:07;;;;;;;14.30;12.27;;;5.90;99.90;;;;;;5031300;28;20229;-75
2022/12/05 07:57:33;;;;;;;17.00;13.60;;;5.90;99.90;;;;;;5033616;28;20470;-75
2022/12/05 07:59:58;;;;;;;14.40;11.87;;;6.00;99.90;;;;;;5039334;28;20201;-70
2022/12/05 08:02:24;;;;;;;15.20;12.07;;;6.00;99.90;;;;;;5031771;28;20843;-70
2022/12/05 08:04:50;;;;;;;16.40;12.40;;;6.00;99.90;;;;;;5032401;28;20401;-69
2022/12/05 08:07:15;;;;;;;17.30;15.40;;;6.00;99.90;;;;;;5032798;28;20207;-70
2022/12/05 08:09:41;;;;;;;15.07;13.00;;;6.00;99.90;;;;;;5032415;28;20202;-70
2022/12/05 08:12:07;;;;;;;12.70;11.40;;;6.10;99.90;;;;;;5032463;28;20238;-70
2022/12/05 08:14:33;;;;;;;15.30;11.90;;;6.10;99.90;;;;;;5030696;28;20185;-70
2022/12/05 08:16:58;;;;;;;17.73;13.93;;;6.10;99.90;;;;;;5031358;28;20894;-70
2022/12/05 08:19:24;;;;;;;15.37;13.13;;;6.10;99.90;;;;;;5030686;28;20331;-70
2022/12/05 08:21:51;;;;;;;15.40;12.80;;;6.10;99.90;;;;;;5031083;28;20187;-70
2022/12/05 08:24:17;;;;;;;18.52;14.75;;;6.10;99.90;;;;;;5028434;28;20188;-70
2022/12/05 08:26:42;;;;;;;20.67;15.30;;;6.10;99.90;;;;;;5048796;28;20206;-70
2022/12/05 08:29:11;;;;;;;20.80;15.67;;;6.00;99.90;;;;;;5050251;28;20446;-70
2022/12/05 08:31:46;;;;;;;16.45;13.90;;;6.00;99.90;;;;;;5044713;28;20424;-69
2022/12/05 08:34:13;;;;;;;19.80;15.70;;;5.90;99.90;;;;;;5032773;28;20513;-70
2022/12/05 08:36:39;;;;;;;17.45;14.48;;;5.90;99.90;;;;;;5031627;28;20741;-70
2022/12/05 08:39:07;;;;;;;18.30;16.08;;;5.80;99.90;;;;;;5033879;28;20178;-70
2022/12/05 08:41:33;;;;;;;17.77;14.45;;;5.80;99.90;;;;;;5032690;28;20183;-70
2022/12/05 08:44:07;;;;;;;16.88;13.90;;;5.90;99.90;;;;;;5036636;28;20186;-70
2022/12/05 08:46:35;;;;;;;19.60;14.93;;;5.80;99.90;;;;;;5035111;28;20252;-70
2022/12/05 08:49:03;;;;;;;17.85;13.88;;;5.90;99.90;;;;;;5035316;28;20557;-70
2022/12/05 08:51:29;;;;;;;16.88;13.25;;;5.90;99.90;;;;;;5036155;28;20257;-70
2022/12/05 08:53:55;;;;;;;15.10;12.30;;;6.00;99.90;;;;;;5035464;28;20270;-70
2022/12/05 08:56:21;;;;;;;14.48;12.60;;;6.00;99.90;;;;;;5036127;28;20179;-70
2022/12/05 08:58:47;;;;;;;13.18;11.80;;;6.00;99.90;;;;;;5035556;28;20237;-70
2022/12/05 09:01:24;;;;;;;12.90;11.60;;;6.00;99.90;;;;;;5036090;28;20533;-71
2022/12/05 09:03:50;;;;;;;16.75;12.13;;;6.10;99.90;;;;;;5035817;28;20615;-70
2022/12/05 09:06:18;;;;;;;14.23;12.73;;;6.10;99.90;;;;;;5036061;28;20207;-70
2022/12/05 09:08:45;;;;;;;13.40;12.00;;;6.10;99.90;;;;;;5033443;28;20274;-70
2022/12/05 09:11:18;;;;;;;13.27;11.98;;;6.10;99.90;;;;;;5033175;28;20446;-70
2022/12/05 09:13:45;;;;;;;12.17;10.97;;;6.10;99.90;;;;;;5035266;28;20199;-70
2022/12/05 09:16:17;;;;;;;13.85;11.13;;;6.10;99.90;;;;;;5034453;28;20897;-70
2022/12/05 09:18:45;;;;;;;12.40;11.15;;;6.10;99.90;;;;;;5035102;28;20210;-70
2022/12/05 09:21:17;;;;;;;10.77;9.60;;;6.10;99.90;;;;;;5034579;28;20531;-71
2022/12/05 09:23:43;;;;;;;12.70;11.50;;;6.10;99.90;;;;;;5034665;28;20465;-70
2022/12/05 09:26:12;;;;;;;15.70;14.23;;;6.20;99.90;;;;;;5040978;28;20187;-70
2022/12/05 09:28:38;;;;;;;12.67;11.43;;;6.20;99.90;;;;;;5041559;28;20496;-70
2022/12/05 09:31:06;;;;;;;14.77;13.40;;;6.20;99.90;;;;;;5035664;28;20410;-70
2022/12/05 09:33:34;;;;;;;13.70;12.32;;;6.20;99.90;;;;;;5035781;28;20423;-70
2022/12/05 09:36:08;;;;;;;12.20;11.00;;;6.10;99.90;;;;;;5036060;28;20188;-70
2022/12/05 09:38:34;;;;;;;11.95;10.85;;;6.10;99.90;;;;;;5034313;28;20195;-70
2022/12/05 09:41:13;;;;;;;11.90;10.80;;;6.10;99.90;;;;;;5034738;28;20302;-71
2022/12/05 09:43:59;;;;;;;13.37;11.23;;;6.20;99.90;;;;;;5035780;28;20432;-73
2022/12/05 09:46:49;;;;;;;12.07;10.82;;;6.40;99.90;;;;;;5033539;28;20844;-72
2022/12/05 09:49:15;;;;;;;13.10;10.30;;;6.60;99.90;;;;;;5036183;28;20211;-71
2022/12/05 09:51:44;;;;;;;12.63;10.97;;;6.80;99.90;;;;;;5034179;28;20838;-72
2022/12/05 09:54:11;;;;;;;12.93;11.13;;;6.90;99.90;;;;;;5032835;28;20191;-72
2022/12/05 09:56:38;;;;;;;10.73;9.63;;;6.90;99.90;;;;;;5033384;28;20474;-72
2022/12/05 09:59:11;;;;;;;12.10;10.67;;;7.10;99.90;;;;;;5031358;28;20439;-72
2022/12/05 10:02:00;;;;;;;12.57;11.30;;;7.20;99.90;;;;;;5025062;28;20416;-71
2022/12/05 10:04:29;;;;;;;10.43;9.43;;;7.30;99.90;;;;;;5030585;28;20420;-72
2022/12/05 10:07:01;;;;;;;11.97;10.87;;;7.50;99.90;;;;;;5034197;28;20446;-71
2022/12/05 10:09:49;;;;;;;14.43;13.00;;;7.50;99.90;;;;;;5032881;28;20893;-72
2022/12/05 10:12:37;;;;;;;12.80;11.70;;;7.50;99.90;;;;;;5049710;28;20434;-71
2022/12/05 10:15:22;;;;;;;11.30;10.20;;;7.50;99.90;;;;;;5030843;28;20429;-72
2022/12/05 10:17:56;;;;;;;12.93;11.77;;;7.60;99.90;;;;;;5030437;28;20446;-72
2022/12/05 10:20:27;;;;;;;10.27;9.20;;;7.60;99.90;;;;;;5034487;28;20403;-72
2022/12/05 10:23:01;;;;;;;11.90;10.90;;;7.70;99.90;;;;;;5028181;28;20451;-74
2022/12/05 10:25:30;;;;;;;11.43;9.83;;;7.80;99.90;;;;;;5027064;28;20438;-74
2022/12/05 10:27:59;;;;;;;14.13;12.87;;;8.30;99.90;;;;;;5032918;28;20454;-74
2022/12/05 10:30:32;;;;;;;14.10;12.60;;;8.90;99.90;;;;;;5034102;28;20407;-74
2022/12/05 10:33:03;;;;;;;12.20;10.97;;;9.60;99.90;;;;;;5033570;28;20456;-74
2022/12/05 10:35:38;;;;;;;11.57;10.40;;;10.10;99.90;;;;;;5034375;28;20509;-74
2022/12/05 10:38:18;;;;;;;14.30;13.00;;;10.50;99.90;;;;;;5034426;28;20422;-74
2022/12/05 10:40:50;;;;;;;13.20;12.10;;;11.00;99.90;;;;;;5033432;28;20409;-74
2022/12/05 10:43:24;;;;;;;12.43;11.30;;;11.30;99.90;;;;;;5034203;28;20427;-74
2022/12/05 10:45:50;;;;;;;13.63;12.43;;;11.70;99.90;;;;;;5031877;28;20520;-73
2022/12/05 10:48:18;;;;;;;13.17;11.20;;;11.90;99.90;;;;;;5035925;28;21017;-73
2022/12/05 10:50:47;;;;;;;14.90;13.60;;;11.90;99.90;;;;;;5033918;28;20551;-72
2022/12/05 10:53:27;;;;;;;13.33;11.93;;;11.50;97.30;;;;;;5037189;28;20449;-73
2022/12/05 10:55:53;;;;;;;14.00;12.60;;;11.10;94.90;;;;;;5035735;28;20474;-72
2022/12/05 10:58:24;;;;;;;12.43;11.30;;;10.70;94.10;;;;;;5035867;28;20859;-72
2022/12/05 11:01:06;;;;;;;14.27;12.97;;;10.30;94.00;;;;;;5037383;28;20415;-72
2022/12/05 11:03:38;;;;;;;14.40;11.80;;;9.90;95.00;;;;;;5037747;28;20393;-73
2022/12/05 11:06:22;;;;;;;14.90;12.27;;;9.60;95.90;;;;;;5038050;28;20800;-72
2022/12/05 11:09:00;;;;;;;17.33;13.57;;;9.10;97.00;;;;;;5036972;28;20416;-72
2022/12/05 11:11:31;;;;;;;14.47;11.80;;;8.80;98.10;;;;;;5037405;28;20465;-72
2022/12/05 11:14:04;;;;;;;11.27;10.10;;;8.50;99.10;;;;;;5038110;28;20444;-72
2022/12/05 11:16:37;;;;;;;13.00;10.90;;;8.20;99.90;;;;;;5037275;28;20732;-71
2022/12/05 11:19:26;;;;;;;11.47;10.37;;;8.00;99.90;;;;;;5035418;28;20496;-72
2022/12/05 11:21:52;;;;;;;12.10;10.70;;;7.80;99.90;;;;;;5009751;28;20830;-76
2022/12/05 11:24:28;;;;;;;13.37;12.10;;;7.60;99.90;;;;;;5022103;28;20403;-72
2022/12/05 11:26:54;;;;;;;12.30;11.10;;;7.40;99.90;;;;;;5032084;28;20464;-72
2022/12/05 11:29:33;;;;;;;12.70;11.40;;;7.30;99.90;;;;;;5046175;28;20968;-74
2022/12/05 11:31:59;;;;;;;15.83;12.83;;;7.10;99.90;;;;;;5052648;28;20380;-72
2022/12/05 11:34:33;;;;;;;11.60;10.40;;;7.20;99.90;;;;;;5046777;28;20464;-72
2022/12/05 11:37:16;;;;;;;12.77;11.47;;;7.00;99.90;;;;;;5032511;28;20378;-72
2022/12/05 11:39:42;;;;;;;199.93;129.33;;;6.90;99.90;;;;;;5033196;28;20466;-72
2022/12/05 11:42:36;;;;;;;88.43;58.53;;;6.90;99.90;;;;;;5032871;28;20896;-71
2022/12/05 11:45:07;;;;;;;17.53;13.37;;;6.80;99.90;;;;;;5032708;28;20852;-75
2022/12/05 11:48:00;;;;;;;13.87;10.93;;;6.80;99.90;;;;;;5032781;28;20467;-74
2022/12/05 11:50:41;;;;;;;13.13;11.73;;;6.70;99.90;;;;;;5013224;28;20412;-74
2022/12/05 11:53:35;;;;;;;11.97;10.80;;;6.60;99.90;;;;;;5039835;28;20430;-74
2022/12/05 11:56:03;;;;;;;13.70;11.77;;;6.60;99.90;;;;;;5034254;28;20489;-74
2022/12/05 11:58:43;;;;;;;15.13;13.63;;;6.60;99.90;;;;;;5019189;28;20406;-74
2022/12/05 12:02:03;;;;;;;15.13;13.60;;;6.50;99.90;;;;;;5026440;28;20443;-74
2022/12/05 12:04:48;;;;;;;15.07;13.03;;;6.50;99.90;;;;;;4967015;28;20407;-74
2022/12/05 12:07:50;;;;;;;16.23;14.63;;;6.50;99.90;;;;;;5020903;28;20477;-74
2022/12/05 12:10:28;;;;;;;16.80;15.10;;;6.40;99.90;;;;;;5025243;28;20468;-75
2022/12/05 12:13:07;;;;;;;16.90;15.20;;;6.40;99.90;;;;;;5024247;28;20190;-76
2022/12/05 12:15:49;;;;;;;14.18;12.50;;;6.30;99.90;;;;;;5025268;28;20465;-76
2022/12/05 12:18:20;;;;;;;14.43;12.93;;;6.30;99.90;;;;;;5022846;28;20175;-76
2022/12/05 12:21:21;;;;;;;13.45;12.15;;;6.30;99.90;;;;;;5023646;28;20408;-76
2022/12/05 12:23:58;;;;;;;13.27;11.87;;;6.20;99.90;;;;;;5025612;28;20227;-76
2022/12/05 12:26:41;;;;;;;12.45;10.88;;;6.20;99.90;;;;;;5024172;28;20490;-76
2022/12/05 12:29:28;;;;;;;13.13;11.93;;;6.20;99.90;;;;;;5024602;28;20171;-72
2022/12/05 12:32:31;;;;;;;12.90;11.55;;;6.20;99.90;;;;;;5027383;28;20302;-72
2022/12/05 12:35:03;;;;;;;13.43;12.02;;;6.20;99.90;;;;;;5025331;28;20177;-72
2022/12/05 12:38:14;;;;;;;14.07;12.65;;;6.20;99.90;;;;;;5026411;28;20175;-73
2022/12/05 12:40:57;;;;;;;14.27;12.87;;;6.20;99.90;;;;;;5025142;28;20199;-73
2022/12/05 12:43:40;;;;;;;13.15;11.85;;;6.20;99.90;;;;;;5026592;28;20381;-72
2022/12/05 12:46:19;;;;;;;12.23;11.00;;;6.20;99.90;;;;;;5019516;28;20248;-79
2022/12/05 12:49:13;;;;;;;13.88;12.45;;;6.10;99.90;;;;;;5019629;28;20404;-74
2022/12/05 12:51:47;;;;;;;15.20;13.20;;;6.10;99.90;;;;;;5013590;28;20185;-80
2022/12/05 12:54:32;;;;;;;17.70;15.80;;;6.10;99.90;;;;;;5027115;28;20930;-73
2022/12/05 12:57:10;;;;;;;14.00;12.70;;;6.10;99.90;;;;;;5032057;28;20175;-73
2022/12/05 13:00:02;;;;;;;14.90;13.40;;;6.10;99.90;;;;;;5031586;28;20261;-73
2022/12/05 13:02:42;;;;;;;15.45;13.95;;;6.10;99.90;;;;;;5033426;28;20174;-79
2022/12/05 13:05:25;;;;;;;14.23;12.70;;;6.10;99.90;;;;;;5032863;28;20191;-83
2022/12/05 13:08:03;;;;;;;16.00;14.40;;;6.10;99.90;;;;;;5032257;28;20464;-79